sensor_id;sensor_type;location;lat;lon;timestamp;temperature;humidity
30764;DHT22;17497;51.476;7.770;2023-07-02T00:00:04;16.10;99.90
30764;DHT22;17497;51.476;7.770;2023-07-02T00:02:32;16.10;99.90
30764;DHT22;17497;51.476;7.770;2023-07-02T00:04:59;16.10;99.90
30764;DHT22;17497;51.476;7.770;2023-07-02T00:07:25;16.10;99.90
30764;DHT22;17497;51.476;7.770;2023-07-02T00:09:52;16.10;99.90
30764;DHT22;17497;51.476;7.770;2023-07-02T00:12:19;16.20;99.90
30764;DHT22;17497;51.476;7.770;2023-07-02T00:14:46;16.20;99.90
30764;DHT22;17497;51.476;7.770;2023-07-02T00:17:13;16.20;99.90
30764;DHT22;17497;51.476;7.770;2023-07-02T00:19:43;16.20;99.90
30764;DHT22;17497;51.476;7.770;2023-07-02T00:22:12;16.20;99.90
30764;DHT22;17497;51.476;7.770;2023-07-02T00:24:42;16.20;99.90
30764;DHT22;17497;51.476;7.770;2023-07-02T00:27:09;16.20;99.90
30764;DHT22;17497;51.476;7.770;2023-07-02T00:29:36;16.20;99.90
30764;DHT22;17497;51.476;7.770;2023-07-02T00:32:03;16.20;99.90
30764;DHT22;17497;51.476;7.770;2023-07-02T00:34:30;16.20;99.90
30764;DHT22;17497;51.476;7.770;2023-07-02T00:36:57;16.20;99.90
30764;DHT22;17497;51.476;7.770;2023-07-02T00:39:23;16.20;99.90
30764;DHT22;17497;51.476;7.770;2023-07-02T00:41:50;16.20;99.90
30764;DHT22;17497;51.476;7.770;2023-07-02T00:44:17;16.20;99.90
30764;DHT22;17497;51.476;7.770;2023-07-02T00:46:44;16.20;99.90
30764;DHT22;17497;51.476;7.770;2023-07-02T00:49:11;16.20;99.90
30764;DHT22;17497;51.476;7.770;2023-07-02T00:51:38;16.20;99.90
30764;DHT22;17497;51.476;7.770;2023-07-02T00:54:05;16.20;99.90
30764;DHT22;17497;51.476;7.770;2023-07-02T00:56:32;16.20;99.90
30764;DHT22;17497;51.476;7.770;2023-07-02T00:59:01;16.20;99.90
30764;DHT22;17497;51.476;7.770;2023-07-02T01:01:28;16.20;99.90
30764;DHT22;17497;51.476;7.770;2023-07-02T01:04:14;16.10;99.90
30764;DHT22;17497;51.476;7.770;2023-07-02T01:06:43;16.10;99.90
30764;DHT22;17497;51.476;7.770;2023-07-02T01:09:11;16.10;99.90
30764;DHT22;17497;51.476;7.770;2023-07-02T01:11:41;16.10;99.90
30764;DHT22;17497;51.476;7.770;2023-07-02T01:14:14;16.10;99.90
30764;DHT22;17497;51.476;7.770;2023-07-02T01:16:47;16.10;99.90
30764;DHT22;17497;51.476;7.770;2023-07-02T01:19:22;16.10;99.90
30764;DHT22;17497;51.476;7.770;2023-07-02T01:21:52;16.10;99.90
30764;DHT22;17497;51.476;7.770;2023-07-02T01:24:19;16.20;99.90
30764;DHT22;17497;51.476;7.770;2023-07-02T01:26:48;16.10;99.90
30764;DHT22;17497;51.476;7.770;2023-07-02T01:29:20;16.10;99.90
30764;DHT22;17497;51.476;7.770;2023-07-02T01:31:47;16.10;99.90
30764;DHT22;17497;51.476;7.770;2023-07-02T01:34:14;16.10;99.90
30764;DHT22;17497;51.476;7.770;2023-07-02T01:36:41;16.10;99.90
30764;DHT22;17497;51.476;7.770;2023-07-02T01:39:08;16.10;99.90
30764;DHT22;17497;51.476;7.770;2023-07-02T01:44:17;16.00;99.90
30764;DHT22;17497;51.476;7.770;2023-07-02T01:46:44;16.10;99.90
30764;DHT22;17497;51.476;7.770;2023-07-02T01:49:16;16.00;99.90
30764;DHT22;17497;51.476;7.770;2023-07-02T01:51:49;16.00;99.90
30764;DHT22;17497;51.476;7.770;2023-07-02T01:54:18;16.00;99.90
30764;DHT22;17497;51.476;7.770;2023-07-02T01:56:45;15.90;99.90
30764;DHT22;17497;51.476;7.770;2023-07-02T01:59:12;15.90;99.90
30764;DHT22;17497;51.476;7.770;2023-07-02T02:01:39;15.80;99.90
30764;DHT22;17497;51.476;7.770;2023-07-02T02:04:09;15.80;99.90
30764;DHT22;17497;51.476;7.770;2023-07-02T02:06:38;15.80;99.90
30764;DHT22;17497;51.476;7.770;2023-07-02T02:09:07;15.80;99.90
30764;DHT22;17497;51.476;7.770;2023-07-02T02:11:38;15.70;99.90
30764;DHT22;17497;51.476;7.770;2023-07-02T02:14:05;15.70;99.90
30764;DHT22;17497;51.476;7.770;2023-07-02T02:16:32;15.60;99.90
30764;DHT22;17497;51.476;7.770;2023-07-02T02:19:05;15.60;99.90
30764;DHT22;17497;51.476;7.770;2023-07-02T02:21:32;15.60;99.90
30764;DHT22;17497;51.476;7.770;2023-07-02T02:23:59;15.50;99.90
30764;DHT22;17497;51.476;7.770;2023-07-02T02:26:26;15.50;99.90
30764;DHT22;17497;51.476;7.770;2023-07-02T02:28:53;15.60;99.90
30764;DHT22;17497;51.476;7.770;2023-07-02T02:31:20;15.60;99.90
30764;DHT22;17497;51.476;7.770;2023-07-02T02:33:47;15.60;99.90
30764;DHT22;17497;51.476;7.770;2023-07-02T02:36:23;15.60;99.90
30764;DHT22;17497;51.476;7.770;2023-07-02T02:38:55;15.60;99.90
30764;DHT22;17497;51.476;7.770;2023-07-02T02:41:24;15.60;99.90
30764;DHT22;17497;51.476;7.770;2023-07-02T02:43:55;15.60;99.90
30764;DHT22;17497;51.476;7.770;2023-07-02T02:46:26;15.70;99.90
30764;DHT22;17497;51.476;7.770;2023-07-02T02:49:01;15.70;99.90
30764;DHT22;17497;51.476;7.770;2023-07-02T02:51:46;15.70;99.90
30764;DHT22;17497;51.476;7.770;2023-07-02T02:54:13;15.70;99.90
30764;DHT22;17497;51.476;7.770;2023-07-02T02:56:43;15.70;99.90
30764;DHT22;17497;51.476;7.770;2023-07-02T02:59:12;15.60;99.90
30764;DHT22;17497;51.476;7.770;2023-07-02T03:01:44;15.60;99.90
30764;DHT22;17497;51.476;7.770;2023-07-02T03:04:12;15.50;99.90
30764;DHT22;17497;51.476;7.770;2023-07-02T03:06:44;15.50;99.90
30764;DHT22;17497;51.476;7.770;2023-07-02T03:09:15;15.50;99.90
30764;DHT22;17497;51.476;7.770;2023-07-02T03:11:46;15.60;99.90
30764;DHT22;17497;51.476;7.770;2023-07-02T03:14:15;15.50;99.90
30764;DHT22;17497;51.476;7.770;2023-07-02T03:16:52;15.60;99.90
30764;DHT22;17497;51.476;7.770;2023-07-02T03:19:19;15.60;99.90
30764;DHT22;17497;51.476;7.770;2023-07-02T03:21:51;15.60;99.90
30764;DHT22;17497;51.476;7.770;2023-07-02T03:27:05;15.50;99.90
30764;DHT22;17497;51.476;7.770;2023-07-02T03:29:42;15.50;99.90
30764;DHT22;17497;51.476;7.770;2023-07-02T03:32:18;15.50;99.90
30764;DHT22;17497;51.476;7.770;2023-07-02T03:34:48;15.60;99.90
30764;DHT22;17497;51.476;7.770;2023-07-02T03:37:18;15.60;99.90
30764;DHT22;17497;51.476;7.770;2023-07-02T03:39:55;15.50;99.90
30764;DHT22;17497;51.476;7.770;2023-07-02T03:42:26;15.50;99.90
30764;DHT22;17497;51.476;7.770;2023-07-02T03:44:58;15.50;99.90
30764;DHT22;17497;51.476;7.770;2023-07-02T03:47:29;15.60;99.90
30764;DHT22;17497;51.476;7.770;2023-07-02T03:49:59;15.60;99.90
30764;DHT22;17497;51.476;7.770;2023-07-02T03:52:26;15.60;99.90
30764;DHT22;17497;51.476;7.770;2023-07-02T03:54:54;15.60;99.90
30764;DHT22;17497;51.476;7.770;2023-07-02T03:57:23;15.50;99.90
30764;DHT22;17497;51.476;7.770;2023-07-02T03:59:50;15.60;99.90
30764;DHT22;17497;51.476;7.770;2023-07-02T04:02:19;15.60;99.90
30764;DHT22;17497;51.476;7.770;2023-07-02T04:04:46;15.60;99.90
30764;DHT22;17497;51.476;7.770;2023-07-02T04:07:16;15.60;99.90
30764;DHT22;17497;51.476;7.770;2023-07-02T04:09:43;15.60;99.90
30764;DHT22;17497;51.476;7.770;2023-07-02T04:12:14;15.60;99.90
30764;DHT22;17497;51.476;7.770;2023-07-02T04:14:44;15.60;99.90
30764;DHT22;17497;51.476;7.770;2023-07-02T04:17:35;15.60;99.90
30764;DHT22;17497;51.476;7.770;2023-07-02T04:20:03;15.60;99.90
30764;DHT22;17497;51.476;7.770;2023-07-02T04:22:30;15.60;99.90
30764;DHT22;17497;51.476;7.770;2023-07-02T04:24:57;15.60;99.90
30764;DHT22;17497;51.476;7.770;2023-07-02T04:27:32;15.60;99.90
30764;DHT22;17497;51.476;7.770;2023-07-02T04:30:15;15.60;99.90
30764;DHT22;17497;51.476;7.770;2023-07-02T04:32:41;15.70;99.90
30764;DHT22;17497;51.476;7.770;2023-07-02T04:35:09;15.70;99.90
30764;DHT22;17497;51.476;7.770;2023-07-02T04:37:36;15.70;99.90
30764;DHT22;17497;51.476;7.770;2023-07-02T04:40:03;15.70;99.90
30764;DHT22;17497;51.476;7.770;2023-07-02T04:42:33;15.60;99.90
30764;DHT22;17497;51.476;7.770;2023-07-02T04:45:05;15.70;99.90
30764;DHT22;17497;51.476;7.770;2023-07-02T04:47:32;15.70;99.90
30764;DHT22;17497;51.476;7.770;2023-07-02T04:49:59;15.80;99.90
30764;DHT22;17497;51.476;7.770;2023-07-02T04:52:27;15.90;99.90
30764;DHT22;17497;51.476;7.770;2023-07-02T04:54:54;15.90;99.90
30764;DHT22;17497;51.476;7.770;2023-07-02T04:57:22;15.80;99.90
30764;DHT22;17497;51.476;7.770;2023-07-02T04:59:49;15.80;99.90
30764;DHT22;17497;51.476;7.770;2023-07-02T05:02:16;15.80;99.90
30764;DHT22;17497;51.476;7.770;2023-07-02T05:04:43;15.80;99.90
30764;DHT22;17497;51.476;7.770;2023-07-02T05:07:10;15.70;99.90
30764;DHT22;17497;51.476;7.770;2023-07-02T05:09:37;15.70;99.90
30764;DHT22;17497;51.476;7.770;2023-07-02T05:12:04;15.70;99.90
30764;DHT22;17497;51.476;7.770;2023-07-02T05:14:31;15.70;99.90
30764;DHT22;17497;51.476;7.770;2023-07-02T05:16:57;15.70;99.90
30764;DHT22;17497;51.476;7.770;2023-07-02T05:19:24;15.70;99.90
30764;DHT22;17497;51.476;7.770;2023-07-02T05:21:51;15.70;99.90
30764;DHT22;17497;51.476;7.770;2023-07-02T05:24:18;15.70;99.90
30764;DHT22;17497;51.476;7.770;2023-07-02T05:26:45;15.70;99.90
30764;DHT22;17497;51.476;7.770;2023-07-02T05:29:12;15.80;99.90
30764;DHT22;17497;51.476;7.770;2023-07-02T05:31:40;15.80;99.90
30764;DHT22;17497;51.476;7.770;2023-07-02T05:34:07;15.80;99.90
30764;DHT22;17497;51.476;7.770;2023-07-02T05:36:34;15.70;99.90
30764;DHT22;17497;51.476;7.770;2023-07-02T05:39:01;15.80;99.90
30764;DHT22;17497;51.476;7.770;2023-07-02T05:41:28;15.80;99.90
30764;DHT22;17497;51.476;7.770;2023-07-02T05:43:58;15.80;99.90
30764;DHT22;17497;51.476;7.770;2023-07-02T05:46:25;15.90;99.90
30764;DHT22;17497;51.476;7.770;2023-07-02T05:48:52;15.90;99.90
30764;DHT22;17497;51.476;7.770;2023-07-02T05:51:25;16.00;99.90
30764;DHT22;17497;51.476;7.770;2023-07-02T05:53:52;16.00;99.90
30764;DHT22;17497;51.476;7.770;2023-07-02T05:56:19;16.10;99.90
30764;DHT22;17497;51.476;7.770;2023-07-02T05:58:46;16.10;99.90
30764;DHT22;17497;51.476;7.770;2023-07-02T06:01:14;16.10;99.90
30764;DHT22;17497;51.476;7.770;2023-07-02T06:03:42;16.20;99.90
30764;DHT22;17497;51.476;7.770;2023-07-02T06:06:10;16.20;99.90
30764;DHT22;17497;51.476;7.770;2023-07-02T06:08:38;16.10;99.90
30764;DHT22;17497;51.476;7.770;2023-07-02T06:11:05;16.10;99.90
30764;DHT22;17497;51.476;7.770;2023-07-02T06:13:31;16.20;99.90
30764;DHT22;17497;51.476;7.770;2023-07-02T06:15:58;16.20;99.90
30764;DHT22;17497;51.476;7.770;2023-07-02T06:18:25;16.30;99.90
30764;DHT22;17497;51.476;7.770;2023-07-02T06:20:52;16.20;99.90
30764;DHT22;17497;51.476;7.770;2023-07-02T06:23:19;16.20;99.90
30764;DHT22;17497;51.476;7.770;2023-07-02T06:25:46;16.20;99.90
30764;DHT22;17497;51.476;7.770;2023-07-02T06:28:13;16.30;99.90
30764;DHT22;17497;51.476;7.770;2023-07-02T06:30:40;16.30;99.90
30764;DHT22;17497;51.476;7.770;2023-07-02T06:33:07;16.30;99.90
30764;DHT22;17497;51.476;7.770;2023-07-02T06:35:33;16.40;99.90
30764;DHT22;17497;51.476;7.770;2023-07-02T06:38:01;16.40;99.90
30764;DHT22;17497;51.476;7.770;2023-07-02T06:40:28;16.30;99.90
30764;DHT22;17497;51.476;7.770;2023-07-02T06:42:55;16.30;99.90
30764;DHT22;17497;51.476;7.770;2023-07-02T06:45:22;16.40;99.90
30764;DHT22;17497;51.476;7.770;2023-07-02T06:47:49;16.50;99.90
30764;DHT22;17497;51.476;7.770;2023-07-02T06:50:16;16.50;99.90
30764;DHT22;17497;51.476;7.770;2023-07-02T06:52:43;16.60;99.90
30764;DHT22;17497;51.476;7.770;2023-07-02T06:55:10;16.70;99.90
30764;DHT22;17497;51.476;7.770;2023-07-02T06:57:45;16.70;99.90
30764;DHT22;17497;51.476;7.770;2023-07-02T07:00:13;16.70;99.90
30764;DHT22;17497;51.476;7.770;2023-07-02T07:02:41;16.70;99.90
30764;DHT22;17497;51.476;7.770;2023-07-02T07:05:08;16.70;99.90
30764;DHT22;17497;51.476;7.770;2023-07-02T07:07:36;16.70;99.90
30764;DHT22;17497;51.476;7.770;2023-07-02T07:10:04;16.60;99.90
30764;DHT22;17497;51.476;7.770;2023-07-02T07:12:31;16.60;99.90
30764;DHT22;17497;51.476;7.770;2023-07-02T07:14:58;16.60;99.90
30764;DHT22;17497;51.476;7.770;2023-07-02T07:17:24;16.60;99.90
30764;DHT22;17497;51.476;7.770;2023-07-02T07:19:51;16.70;99.90
30764;DHT22;17497;51.476;7.770;2023-07-02T07:22:18;16.70;99.90
30764;DHT22;17497;51.476;7.770;2023-07-02T07:24:45;16.80;99.90
30764;DHT22;17497;51.476;7.770;2023-07-02T07:27:12;16.90;99.90
30764;DHT22;17497;51.476;7.770;2023-07-02T07:29:39;17.00;99.90
30764;DHT22;17497;51.476;7.770;2023-07-02T07:32:06;17.10;99.90
30764;DHT22;17497;51.476;7.770;2023-07-02T07:34:33;17.20;99.90
30764;DHT22;17497;51.476;7.770;2023-07-02T07:36:59;17.30;99.90
30764;DHT22;17497;51.476;7.770;2023-07-02T07:39:26;17.30;99.90
30764;DHT22;17497;51.476;7.770;2023-07-02T07:41:53;17.30;99.90
30764;DHT22;17497;51.476;7.770;2023-07-02T07:44:20;17.30;99.90
30764;DHT22;17497;51.476;7.770;2023-07-02T07:46:47;17.30;99.90
30764;DHT22;17497;51.476;7.770;2023-07-02T07:49:14;17.30;99.90
30764;DHT22;17497;51.476;7.770;2023-07-02T07:51:41;17.30;99.90
30764;DHT22;17497;51.476;7.770;2023-07-02T07:54:08;17.40;99.90
30764;DHT22;17497;51.476;7.770;2023-07-02T07:56:35;17.50;99.90
30764;DHT22;17497;51.476;7.770;2023-07-02T07:59:02;17.50;99.90
30764;DHT22;17497;51.476;7.770;2023-07-02T08:01:29;17.50;99.90
30764;DHT22;17497;51.476;7.770;2023-07-02T08:03:56;17.70;99.90
30764;DHT22;17497;51.476;7.770;2023-07-02T08:06:23;17.80;99.90
30764;DHT22;17497;51.476;7.770;2023-07-02T08:08:50;17.80;99.90
30764;DHT22;17497;51.476;7.770;2023-07-02T08:11:17;17.90;99.90
30764;DHT22;17497;51.476;7.770;2023-07-02T08:13:44;18.00;99.90
30764;DHT22;17497;51.476;7.770;2023-07-02T08:16:11;18.10;99.90
30764;DHT22;17497;51.476;7.770;2023-07-02T08:18:38;18.10;99.90
30764;DHT22;17497;51.476;7.770;2023-07-02T08:21:05;18.00;99.90
30764;DHT22;17497;51.476;7.770;2023-07-02T08:23:33;17.90;99.90
30764;DHT22;17497;51.476;7.770;2023-07-02T08:26:00;17.90;99.90
30764;DHT22;17497;51.476;7.770;2023-07-02T08:28:27;17.80;99.90
30764;DHT22;17497;51.476;7.770;2023-07-02T08:30:54;17.80;99.90
30764;DHT22;17497;51.476;7.770;2023-07-02T08:33:21;17.80;99.90
30764;DHT22;17497;51.476;7.770;2023-07-02T08:35:48;17.80;99.90
30764;DHT22;17497;51.476;7.770;2023-07-02T08:38:15;17.70;99.90
30764;DHT22;17497;51.476;7.770;2023-07-02T08:40:42;17.60;99.90
30764;DHT22;17497;51.476;7.770;2023-07-02T08:43:15;17.60;99.90
30764;DHT22;17497;51.476;7.770;2023-07-02T08:46:01;17.60;99.90
30764;DHT22;17497;51.476;7.770;2023-07-02T08:48:35;17.80;99.90
30764;DHT22;17497;51.476;7.770;2023-07-02T08:51:05;17.80;99.90
30764;DHT22;17497;51.476;7.770;2023-07-02T08:53:33;17.80;99.90
30764;DHT22;17497;51.476;7.770;2023-07-02T08:56:01;17.80;99.90
30764;DHT22;17497;51.476;7.770;2023-07-02T08:58:33;17.70;99.90
30764;DHT22;17497;51.476;7.770;2023-07-02T09:01:32;17.80;99.90
30764;DHT22;17497;51.476;7.770;2023-07-02T09:04:00;18.00;99.90
30764;DHT22;17497;51.476;7.770;2023-07-02T09:06:28;18.10;99.90
30764;DHT22;17497;51.476;7.770;2023-07-02T09:09:04;18.30;99.90
30764;DHT22;17497;51.476;7.770;2023-07-02T09:11:35;18.30;99.90
30764;DHT22;17497;51.476;7.770;2023-07-02T09:14:30;18.40;99.90
30764;DHT22;17497;51.476;7.770;2023-07-02T09:17:09;18.40;99.90
30764;DHT22;17497;51.476;7.770;2023-07-02T09:20:07;18.40;99.90
30764;DHT22;17497;51.476;7.770;2023-07-02T09:22:36;18.50;99.90
30764;DHT22;17497;51.476;7.770;2023-07-02T09:25:06;18.60;99.90
30764;DHT22;17497;51.476;7.770;2023-07-02T09:27:40;18.60;99.90
30764;DHT22;17497;51.476;7.770;2023-07-02T09:30:14;18.90;99.90
30764;DHT22;17497;51.476;7.770;2023-07-02T09:32:44;19.00;99.90
30764;DHT22;17497;51.476;7.770;2023-07-02T09:35:12;19.10;99.90
30764;DHT22;17497;51.476;7.770;2023-07-02T09:37:43;19.20;99.90
30764;DHT22;17497;51.476;7.770;2023-07-02T09:40:11;19.20;99.90
30764;DHT22;17497;51.476;7.770;2023-07-02T09:42:41;19.20;99.90
30764;DHT22;17497;51.476;7.770;2023-07-02T09:45:10;19.10;99.90
30764;DHT22;17497;51.476;7.770;2023-07-02T09:47:44;19.20;99.90
30764;DHT22;17497;51.476;7.770;2023-07-02T09:50:16;19.10;99.90
30764;DHT22;17497;51.476;7.770;2023-07-02T09:52:49;19.00;99.90
30764;DHT22;17497;51.476;7.770;2023-07-02T09:55:17;19.00;99.90
30764;DHT22;17497;51.476;7.770;2023-07-02T09:57:47;19.00;99.90
30764;DHT22;17497;51.476;7.770;2023-07-02T10:00:14;19.00;99.90
30764;DHT22;17497;51.476;7.770;2023-07-02T10:02:48;19.10;99.90
30764;DHT22;17497;51.476;7.770;2023-07-02T10:05:35;19.10;99.90
30764;DHT22;17497;51.476;7.770;2023-07-02T10:08:23;19.10;99.90
30764;DHT22;17497;51.476;7.770;2023-07-02T10:11:10;19.10;99.90
30764;DHT22;17497;51.476;7.770;2023-07-02T10:13:38;19.20;99.90
30764;DHT22;17497;51.476;7.770;2023-07-02T10:16:06;19.10;99.90
30764;DHT22;17497;51.476;7.770;2023-07-02T10:18:33;19.00;99.90
30764;DHT22;17497;51.476;7.770;2023-07-02T10:21:15;18.90;99.90
30764;DHT22;17497;51.476;7.770;2023-07-02T10:23:43;18.90;99.90
30764;DHT22;17497;51.476;7.770;2023-07-02T10:26:19;19.00;99.90
30764;DHT22;17497;51.476;7.770;2023-07-02T10:28:59;19.20;99.90
30764;DHT22;17497;51.476;7.770;2023-07-02T10:31:26;19.50;99.90
30764;DHT22;17497;51.476;7.770;2023-07-02T10:33:53;19.80;99.90
30764;DHT22;17497;51.476;7.770;2023-07-02T10:36:21;19.90;99.90
30764;DHT22;17497;51.476;7.770;2023-07-02T10:38:52;20.00;99.90
30764;DHT22;17497;51.476;7.770;2023-07-02T10:41:27;20.20;99.90
30764;DHT22;17497;51.476;7.770;2023-07-02T10:44:04;20.20;99.90
30764;DHT22;17497;51.476;7.770;2023-07-02T10:46:31;20.20;99.90
30764;DHT22;17497;51.476;7.770;2023-07-02T10:48:58;20.20;99.90
30764;DHT22;17497;51.476;7.770;2023-07-02T10:51:25;20.20;99.90
30764;DHT22;17497;51.476;7.770;2023-07-02T10:54:02;20.10;99.90
30764;DHT22;17497;51.476;7.770;2023-07-02T10:56:31;20.00;99.90
30764;DHT22;17497;51.476;7.770;2023-07-02T10:58:58;20.00;99.90
30764;DHT22;17497;51.476;7.770;2023-07-02T11:01:30;20.00;99.90
30764;DHT22;17497;51.476;7.770;2023-07-02T11:04:04;20.10;99.90
30764;DHT22;17497;51.476;7.770;2023-07-02T11:06:32;20.30;99.90
30764;DHT22;17497;51.476;7.770;2023-07-02T11:09:00;20.40;99.90
30764;DHT22;17497;51.476;7.770;2023-07-02T11:11:27;20.50;99.90
30764;DHT22;17497;51.476;7.770;2023-07-02T11:13:54;20.60;99.90
30764;DHT22;17497;51.476;7.770;2023-07-02T11:16:28;20.30;99.90
30764;DHT22;17497;51.476;7.770;2023-07-02T11:19:09;20.10;99.90
30764;DHT22;17497;51.476;7.770;2023-07-02T11:21:36;19.90;99.90
30764;DHT22;17497;51.476;7.770;2023-07-02T11:24:04;19.70;99.90
30764;DHT22;17497;51.476;7.770;2023-07-02T11:26:38;19.40;99.90
30764;DHT22;17497;51.476;7.770;2023-07-02T11:29:11;19.20;99.90
30764;DHT22;17497;51.476;7.770;2023-07-02T11:31:38;19.10;99.90
30764;DHT22;17497;51.476;7.770;2023-07-02T11:34:19;19.20;99.90
30764;DHT22;17497;51.476;7.770;2023-07-02T11:36:50;19.40;99.90
30764;DHT22;17497;51.476;7.770;2023-07-02T11:39:19;19.80;99.90
30764;DHT22;17497;51.476;7.770;2023-07-02T11:41:47;20.00;99.90
30764;DHT22;17497;51.476;7.770;2023-07-02T11:44:14;20.10;99.90
30764;DHT22;17497;51.476;7.770;2023-07-02T11:46:42;20.40;99.90
30764;DHT22;17497;51.476;7.770;2023-07-02T11:49:09;20.70;99.90
30764;DHT22;17497;51.476;7.770;2023-07-02T11:51:36;20.80;99.90
30764;DHT22;17497;51.476;7.770;2023-07-02T11:54:04;20.70;99.90
30764;DHT22;17497;51.476;7.770;2023-07-02T11:56:31;20.60;99.90
30764;DHT22;17497;51.476;7.770;2023-07-02T11:58:58;20.70;99.90
30764;DHT22;17497;51.476;7.770;2023-07-02T12:01:28;20.70;99.90
30764;DHT22;17497;51.476;7.770;2023-07-02T12:03:55;20.70;99.90
30764;DHT22;17497;51.476;7.770;2023-07-02T12:06:22;20.80;99.90
30764;DHT22;17497;51.476;7.770;2023-07-02T12:08:49;21.00;99.90
30764;DHT22;17497;51.476;7.770;2023-07-02T12:11:16;21.60;99.90
30764;DHT22;17497;51.476;7.770;2023-07-02T12:13:43;22.20;99.90
30764;DHT22;17497;51.476;7.770;2023-07-02T12:16:10;22.70;99.90
30764;DHT22;17497;51.476;7.770;2023-07-02T12:18:36;23.00;99.90
30764;DHT22;17497;51.476;7.770;2023-07-02T12:21:03;23.10;99.90
30764;DHT22;17497;51.476;7.770;2023-07-02T12:23:30;23.00;99.90
30764;DHT22;17497;51.476;7.770;2023-07-02T12:25:57;23.00;98.50
30764;DHT22;17497;51.476;7.770;2023-07-02T12:28:24;22.90;97.90
30764;DHT22;17497;51.476;7.770;2023-07-02T12:30:50;22.70;98.70
30764;DHT22;17497;51.476;7.770;2023-07-02T12:33:17;22.70;99.90
30764;DHT22;17497;51.476;7.770;2023-07-02T12:35:46;22.90;99.90
30764;DHT22;17497;51.476;7.770;2023-07-02T12:38:13;23.10;96.10
30764;DHT22;17497;51.476;7.770;2023-07-02T12:40:40;22.90;95.90
30764;DHT22;17497;51.476;7.770;2023-07-02T12:43:07;22.60;96.80
30764;DHT22;17497;51.476;7.770;2023-07-02T12:45:34;22.50;97.60
30764;DHT22;17497;51.476;7.770;2023-07-02T12:48:01;22.10;97.00
30764;DHT22;17497;51.476;7.770;2023-07-02T12:50:28;21.90;96.80
30764;DHT22;17497;51.476;7.770;2023-07-02T12:52:55;21.60;97.10
30764;DHT22;17497;51.476;7.770;2023-07-02T12:55:22;21.30;97.60
30764;DHT22;17497;51.476;7.770;2023-07-02T13:10:58;20.90;98.00
30764;DHT22;17497;51.476;7.770;2023-07-02T13:13:29;21.20;99.90
30764;DHT22;17497;51.476;7.770;2023-07-02T13:16:12;22.20;98.50
30764;DHT22;17497;51.476;7.770;2023-07-02T13:18:53;23.00;96.90
30764;DHT22;17497;51.476;7.770;2023-07-02T13:21:43;23.60;92.50
30764;DHT22;17497;51.476;7.770;2023-07-02T13:24:35;23.90;92.20
30764;DHT22;17497;51.476;7.770;2023-07-02T13:27:18;24.10;87.00
30764;DHT22;17497;51.476;7.770;2023-07-02T13:29:49;24.00;84.50
30764;DHT22;17497;51.476;7.770;2023-07-02T13:32:22;23.40;87.70
30764;DHT22;17497;51.476;7.770;2023-07-02T13:34:49;22.80;87.80
30764;DHT22;17497;51.476;7.770;2023-07-02T13:37:19;22.10;89.70
30764;DHT22;17497;51.476;7.770;2023-07-02T13:39:49;21.80;92.00
30764;DHT22;17497;51.476;7.770;2023-07-02T13:42:28;21.80;92.50
30764;DHT22;17497;51.476;7.770;2023-07-02T13:44:57;22.40;91.90
30764;DHT22;17497;51.476;7.770;2023-07-02T13:47:24;23.40;88.00
30764;DHT22;17497;51.476;7.770;2023-07-02T13:49:51;23.50;85.00
30764;DHT22;17497;51.476;7.770;2023-07-02T13:52:28;23.40;86.90
30764;DHT22;17497;51.476;7.770;2023-07-02T13:55:08;23.10;87.70
30764;DHT22;17497;51.476;7.770;2023-07-02T13:57:49;23.00;86.60
30764;DHT22;17497;51.476;7.770;2023-07-02T14:00:16;23.40;83.30
30764;DHT22;17497;51.476;7.770;2023-07-02T14:02:44;23.40;85.30
30764;DHT22;17497;51.476;7.770;2023-07-02T14:05:15;23.60;85.70
30764;DHT22;17497;51.476;7.770;2023-07-02T14:07:44;23.40;85.90
30764;DHT22;17497;51.476;7.770;2023-07-02T14:10:53;23.60;86.20
30764;DHT22;17497;51.476;7.770;2023-07-02T14:13:14;24.00;83.70
30764;DHT22;17497;51.476;7.770;2023-07-02T14:15:50;24.70;84.20
30764;DHT22;17497;51.476;7.770;2023-07-02T14:18:21;25.00;88.70
30764;DHT22;17497;51.476;7.770;2023-07-02T14:21:06;25.40;79.30
30764;DHT22;17497;51.476;7.770;2023-07-02T14:23:34;25.10;79.50
30764;DHT22;17497;51.476;7.770;2023-07-02T14:26:07;25.10;81.80
30764;DHT22;17497;51.476;7.770;2023-07-02T14:28:35;25.70;79.30
30764;DHT22;17497;51.476;7.770;2023-07-02T14:31:06;26.00;78.90
30764;DHT22;17497;51.476;7.770;2023-07-02T14:33:40;25.50;78.40
30764;DHT22;17497;51.476;7.770;2023-07-02T14:36:09;24.90;78.90
30764;DHT22;17497;51.476;7.770;2023-07-02T14:38:58;23.90;79.80
30764;DHT22;17497;51.476;7.770;2023-07-02T14:41:30;23.90;81.70
30764;DHT22;17497;51.476;7.770;2023-07-02T14:44:27;24.30;82.20
30764;DHT22;17497;51.476;7.770;2023-07-02T14:47:03;24.60;77.50
30764;DHT22;17497;51.476;7.770;2023-07-02T14:50:05;24.40;78.10
30764;DHT22;17497;51.476;7.770;2023-07-02T14:52:54;24.00;82.20
30764;DHT22;17497;51.476;7.770;2023-07-02T14:55:56;23.50;84.40
30764;DHT22;17497;51.476;7.770;2023-07-02T14:58:30;23.50;85.10
30764;DHT22;17497;51.476;7.770;2023-07-02T15:01:03;23.80;84.60
30764;DHT22;17497;51.476;7.770;2023-07-02T15:03:30;24.20;81.10
30764;DHT22;17497;51.476;7.770;2023-07-02T15:06:14;24.20;80.90
30764;DHT22;17497;51.476;7.770;2023-07-02T15:08:44;23.90;84.60
30764;DHT22;17497;51.476;7.770;2023-07-02T15:11:13;24.40;80.90
30764;DHT22;17497;51.476;7.770;2023-07-02T15:14:00;24.30;83.20
30764;DHT22;17497;51.476;7.770;2023-07-02T15:16:27;24.20;83.00
30764;DHT22;17497;51.476;7.770;2023-07-02T15:18:54;24.30;81.10
30764;DHT22;17497;51.476;7.770;2023-07-02T15:21:21;23.80;84.80
30764;DHT22;17497;51.476;7.770;2023-07-02T15:23:49;23.40;84.40
30764;DHT22;17497;51.476;7.770;2023-07-02T15:26:16;23.10;86.40
30764;DHT22;17497;51.476;7.770;2023-07-02T15:28:43;22.90;89.00
30764;DHT22;17497;51.476;7.770;2023-07-02T15:31:11;22.60;88.40
30764;DHT22;17497;51.476;7.770;2023-07-02T15:33:38;23.00;88.40
30764;DHT22;17497;51.476;7.770;2023-07-02T15:36:07;23.60;85.90
30764;DHT22;17497;51.476;7.770;2023-07-02T15:38:38;23.50;86.20
30764;DHT22;17497;51.476;7.770;2023-07-02T15:41:16;23.20;87.80
30764;DHT22;17497;51.476;7.770;2023-07-02T15:43:44;22.80;89.90
30764;DHT22;17497;51.476;7.770;2023-07-02T15:46:13;22.50;91.60
30764;DHT22;17497;51.476;7.770;2023-07-02T15:48:41;22.40;92.00
30764;DHT22;17497;51.476;7.770;2023-07-02T15:51:09;22.20;90.60
30764;DHT22;17497;51.476;7.770;2023-07-02T15:53:38;22.10;92.20
30764;DHT22;17497;51.476;7.770;2023-07-02T15:56:05;22.30;92.00
30764;DHT22;17497;51.476;7.770;2023-07-02T15:58:33;22.80;90.40
30764;DHT22;17497;51.476;7.770;2023-07-02T16:01:18;23.20;91.10
30764;DHT22;17497;51.476;7.770;2023-07-02T16:03:46;23.50;88.30
30764;DHT22;17497;51.476;7.770;2023-07-02T16:06:14;23.90;88.00